createdAt,value
2018-03-28T00:04:19.791Z,100054.16
2018-03-28T00:06:51.781Z,100051.31
2018-03-28T00:09:24.040Z,100051.69
2018-03-28T00:11:55.527Z,100044.61
2018-03-28T00:17:07.308Z,100053.98
2018-03-28T00:19:40.761Z,100050.48
2018-03-28T00:27:14.949Z,100051.51
2018-03-28T00:29:46.770Z,100045.62
2018-03-28T00:32:18.988Z,100041.24
2018-03-28T00:34:51.030Z,100032.02
2018-03-28T00:37:23.094Z,100026.82
2018-03-28T00:39:56.221Z,100026.58
2018-03-28T00:42:29.233Z,100025.61
2018-03-28T00:45:03.678Z,100019.03
2018-03-28T00:47:36.204Z,100014.20
2018-03-28T00:50:08.245Z,100020.28
2018-03-28T00:52:40.198Z,100017.99
2018-03-28T00:55:12.074Z,100010.23
2018-03-28T00:57:43.986Z,100013.84
2018-03-28T01:00:19.358Z,100011.24
2018-03-28T01:02:51.610Z,100008.51
2018-03-28T01:05:23.541Z,100006.61
2018-03-28T01:07:55.584Z,99999.29
2018-03-28T01:10:28.001Z,100004.73
2018-03-28T01:13:00.576Z,100009.79
2018-03-28T01:15:33.271Z,100004.37
2018-03-28T01:18:05.473Z,100004.78
2018-03-28T01:20:37.421Z,100006.02
2018-03-28T01:23:09.608Z,100004.56
2018-03-28T01:25:41.771Z,100008.67
2018-03-28T01:28:13.982Z,100008.26
2018-03-28T01:30:46.892Z,100005.76
2018-03-28T01:33:18.697Z,100010.09
2018-03-28T01:35:52.742Z,100016.14
2018-03-28T01:38:24.510Z,100021.41
2018-03-28T01:40:56.558Z,100017.00
2018-03-28T01:43:28.625Z,100026.46
2018-03-28T01:46:01.114Z,100024.17
2018-03-28T01:48:34.039Z,100024.97
2018-03-28T01:51:06.076Z,100021.79
2018-03-28T01:53:38.164Z,100028.50
2018-03-28T01:56:11.426Z,100030.81
2018-03-28T01:58:44.397Z,100023.30
2018-03-28T02:01:16.839Z,100020.39
2018-03-28T02:03:48.638Z,100019.20
2018-03-28T02:06:20.010Z,100024.95
2018-03-28T02:08:51.591Z,100018.98
2018-03-28T02:11:22.966Z,100020.66
2018-03-28T02:13:55.608Z,100026.79
2018-03-28T02:16:27.368Z,100018.22
2018-03-28T02:18:58.611Z,100024.86
2018-03-28T02:21:31.132Z,100031.64
2018-03-28T02:24:02.429Z,100025.62
2018-03-28T02:26:33.495Z,100024.98
2018-03-28T02:29:05.022Z,100028.41
2018-03-28T02:31:36.582Z,100031.23
2018-03-28T02:34:07.970Z,100033.80
2018-03-28T02:36:40.227Z,100028.03
2018-03-28T02:39:11.607Z,100014.75
2018-03-28T02:41:43.226Z,100015.05
2018-03-28T02:44:14.348Z,100016.87
2018-03-28T02:46:46.628Z,100012.18
2018-03-28T02:49:17.867Z,100013.27
2018-03-28T02:51:48.916Z,100023.30
2018-03-28T02:54:20.272Z,100022.95
2018-03-28T02:56:51.416Z,100019.55
2018-03-28T02:59:22.574Z,100016.20
2018-03-28T03:01:54.539Z,100014.97
2018-03-28T03:04:27.005Z,100010.19
2018-03-28T03:06:58.235Z,100014.16
2018-03-28T03:09:29.617Z,100002.56
2018-03-28T03:12:00.819Z,100009.89
2018-03-28T03:14:34.794Z,100018.36
2018-03-28T03:17:06.114Z,100015.60
2018-03-28T03:19:38.031Z,100014.33
2018-03-28T03:22:09.189Z,100026.84
2018-03-28T03:24:40.204Z,100027.40
2018-03-28T03:27:12.226Z,100024.05
2018-03-28T03:29:43.371Z,100027.75
2018-03-28T03:32:15.882Z,100017.20
2018-03-28T03:34:47.393Z,100021.86
2018-03-28T03:37:18.459Z,100020.38
2018-03-28T03:39:50.016Z,100006.76
2018-03-28T03:42:20.659Z,100002.20
2018-03-28T03:44:52.757Z,100011.08
2018-03-28T03:47:24.213Z,100015.39
2018-03-28T03:49:56.014Z,100014.75
2018-03-28T03:52:27.119Z,100015.34
2018-03-28T03:54:58.107Z,100021.60
2018-03-28T03:57:29.269Z,100022.33
2018-03-28T04:00:00.079Z,100018.94
2018-03-28T04:02:31.687Z,100022.81
2018-03-28T04:05:03.330Z,100030.30
2018-03-28T04:07:35.054Z,100036.19
2018-03-28T04:10:07.391Z,100034.53
2018-03-28T04:12:39.361Z,100030.25
2018-03-28T04:15:17.600Z,100028.88
2018-03-28T04:17:48.927Z,100028.31
2018-03-28T04:20:20.848Z,100022.48
2018-03-28T04:22:52.112Z,100031.90
2018-03-28T04:25:23.119Z,100034.05
2018-03-28T04:27:54.535Z,100039.05
2018-03-28T04:30:26.930Z,100045.31
2018-03-28T04:32:58.353Z,100042.34
2018-03-28T04:35:29.512Z,100046.34
2018-03-28T04:38:00.658Z,100043.36
2018-03-28T04:40:34.782Z,100045.05
2018-03-28T04:43:05.973Z,100039.59
2018-03-28T04:45:37.703Z,100045.33
2018-03-28T04:48:08.694Z,100044.00
2018-03-28T04:50:39.830Z,100045.00
2018-03-28T04:53:11.045Z,100038.88
2018-03-28T04:55:52.728Z,100049.97
2018-03-28T04:58:24.212Z,100051.83
2018-03-28T05:00:55.576Z,100055.05
2018-03-28T05:03:26.816Z,100056.48
2018-03-28T05:05:57.991Z,100057.30
2018-03-28T05:08:29.662Z,100049.38
2018-03-28T05:11:01.388Z,100048.56
2018-03-28T05:13:33.612Z,100050.74
2018-03-28T05:16:06.417Z,100051.33
2018-03-28T05:18:39.625Z,100055.58
2018-03-28T05:21:14.895Z,100052.88
2018-03-28T05:23:56.950Z,100051.09
2018-03-28T05:29:28.675Z,100055.47
2018-03-28T05:32:00.543Z,100055.23
2018-03-28T05:34:32.302Z,100060.67
2018-03-28T05:37:04.139Z,100070.22
2018-03-28T05:39:35.479Z,100080.44
2018-03-28T05:42:07.536Z,100065.91
2018-03-28T05:44:38.789Z,100040.73
2018-03-28T05:47:12.988Z,100042.57
2018-03-28T05:49:44.745Z,100064.50
2018-03-28T05:52:16.070Z,100067.83
2018-03-28T05:54:48.209Z,100076.12
2018-03-28T05:57:19.518Z,100068.04
2018-03-28T05:59:51.046Z,100076.32
2018-03-28T06:02:24.345Z,100070.94
2018-03-28T06:05:00.412Z,100051.47
2018-03-28T06:07:34.548Z,100074.78
2018-03-28T06:10:05.936Z,100075.31
2018-03-28T06:12:37.819Z,100080.38
2018-03-28T06:15:13.516Z,100073.25
2018-03-28T06:17:46.444Z,100066.14
2018-03-28T06:20:18.538Z,100066.85
2018-03-28T06:23:06.742Z,100060.38
2018-03-28T06:26:54.398Z,100057.67
2018-03-28T06:29:26.882Z,100059.60
2018-03-28T06:31:59.052Z,100057.45
2018-03-28T06:34:30.856Z,100050.53
2018-03-28T06:37:02.645Z,100047.39
2018-03-28T06:39:34.750Z,100046.53
2018-03-28T06:42:06.808Z,100038.42
2018-03-28T06:44:38.963Z,100042.73
2018-03-28T06:47:11.661Z,100043.77
2018-03-28T06:49:42.964Z,100018.99
2018-03-28T06:52:14.606Z,100018.72
2018-03-28T06:54:46.660Z,100027.64
2018-03-28T06:57:18.432Z,100028.48
2018-03-28T07:02:28.103Z,100030.51
2018-03-28T07:04:59.851Z,100022.45
2018-03-28T07:07:31.526Z,100027.44
2018-03-28T07:10:04.433Z,100029.97
2018-03-28T07:12:36.628Z,100028.75
2018-03-28T07:15:09.398Z,100026.04
2018-03-28T07:17:41.988Z,100039.63
2018-03-28T07:20:13.346Z,100043.14
2018-03-28T07:22:45.353Z,100043.44
2018-03-28T07:25:16.355Z,100042.66
2018-03-28T07:27:49.636Z,100032.89
2018-03-28T07:30:21.176Z,100020.83
2018-03-28T07:32:53.614Z,100031.66
2018-03-28T07:35:25.815Z,100032.47
2018-03-28T07:37:57.337Z,100025.00
2018-03-28T07:40:28.625Z,100029.38
2018-03-28T07:43:00.919Z,100028.66
2018-03-28T07:45:33.382Z,100024.59
2018-03-28T07:48:05.082Z,100022.42
2018-03-28T07:50:40.836Z,100025.08
2018-03-28T07:53:12.297Z,100015.58
2018-03-28T07:55:43.402Z,100014.98
2018-03-28T07:58:15.955Z,100002.87
2018-03-28T08:00:47.967Z,100012.36
2018-03-28T08:03:19.457Z,99999.68
2018-03-28T08:05:50.429Z,100011.86
2018-03-28T08:08:22.012Z,100013.41
2018-03-28T08:10:53.043Z,100009.11
2018-03-28T08:13:24.004Z,100002.24
2018-03-28T08:15:57.104Z,99991.21
2018-03-28T08:18:29.413Z,99999.95
2018-03-28T08:21:01.547Z,99994.04
2018-03-28T08:23:34.303Z,99990.84
2018-03-28T08:26:06.379Z,99993.61
2018-03-28T08:28:37.784Z,99998.11
2018-03-28T08:31:10.365Z,99990.19
2018-03-28T08:33:41.439Z,99986.11
2018-03-28T08:36:12.729Z,99990.78
2018-03-28T08:38:44.175Z,99992.53
2018-03-28T08:41:15.939Z,99966.92
2018-03-28T08:43:46.979Z,99986.27
2018-03-28T08:46:20.002Z,99984.47
2018-03-28T08:48:51.761Z,99984.64
2018-03-28T08:51:23.616Z,99965.06
2018-03-28T08:53:55.875Z,99982.50
2018-03-28T08:56:27.464Z,99972.52
2018-03-28T08:58:58.981Z,99976.17
2018-03-28T09:01:30.285Z,99988.61
2018-03-28T09:04:01.161Z,99944.27
2018-03-28T09:06:32.612Z,99971.92
2018-03-28T09:09:04.572Z,99962.56
2018-03-28T09:11:37.708Z,99965.98
2018-03-28T09:14:09.000Z,99962.31
2018-03-28T09:16:40.844Z,99962.89
2018-03-28T09:19:13.173Z,99947.89
2018-03-28T09:21:44.703Z,99960.62
2018-03-28T09:24:28.101Z,99954.53
2018-03-28T09:29:43.357Z,99953.30
2018-03-28T09:32:15.409Z,99952.84
2018-03-28T09:34:47.337Z,99945.67
2018-03-28T09:37:20.488Z,99945.12
2018-03-28T09:39:51.431Z,99942.03
2018-03-28T09:42:24.572Z,99940.05
2018-03-28T09:44:59.441Z,99931.63
2018-03-28T09:47:35.080Z,99936.82
2018-03-28T09:50:06.720Z,99934.75
2018-03-28T09:52:49.068Z,99930.96
2018-03-28T09:55:26.638Z,99909.55
2018-03-28T09:57:59.070Z,99926.20
2018-03-28T10:00:32.977Z,99928.58
2018-03-28T10:03:08.426Z,99932.31
2018-03-28T10:05:40.277Z,99921.81
2018-03-28T10:08:11.537Z,99929.50
2018-03-28T10:10:42.967Z,99935.66
2018-03-28T10:13:14.834Z,99931.36
2018-03-28T10:15:46.016Z,99922.43
2018-03-28T10:18:17.499Z,99912.84
2018-03-28T10:20:49.942Z,99920.56
2018-03-28T10:23:22.805Z,99914.38
2018-03-28T10:25:54.553Z,99906.08
2018-03-28T10:28:29.956Z,99911.45
2018-03-28T10:31:02.386Z,99903.93
2018-03-28T10:33:34.847Z,99904.10
2018-03-28T10:36:06.557Z,99902.98
2018-03-28T10:38:38.305Z,99894.39
2018-03-28T10:41:11.321Z,99895.39
2018-03-28T10:43:45.969Z,99891.95
2018-03-28T10:46:18.486Z,99884.56
2018-03-28T10:48:50.155Z,99881.08
2018-03-28T10:51:29.514Z,99869.45
2018-03-28T10:54:02.331Z,99870.59
2018-03-28T10:56:35.589Z,99856.63
2018-03-28T10:59:08.900Z,99858.55
2018-03-28T11:01:40.596Z,99836.95
2018-03-28T11:04:11.775Z,99844.83
2018-03-28T11:06:43.845Z,99836.34
2018-03-28T11:09:15.720Z,99834.37
2018-03-28T11:11:46.662Z,99830.27
2018-03-28T11:14:19.222Z,99830.78
2018-03-28T11:16:51.224Z,99828.70
2018-03-28T11:19:22.621Z,99812.66
2018-03-28T11:21:54.246Z,99811.68
2018-03-28T11:24:26.369Z,99800.30
2018-03-28T11:26:58.907Z,99795.20
2018-03-28T11:29:30.380Z,99788.84
2018-03-28T11:32:02.210Z,99780.94
2018-03-28T11:34:35.196Z,99785.11
2018-03-28T11:37:10.215Z,99770.67
2018-03-28T11:39:41.573Z,99754.05
2018-03-28T11:42:12.532Z,99755.03
2018-03-28T11:44:44.203Z,99745.79
2018-03-28T11:47:16.646Z,99748.22
2018-03-28T11:49:49.240Z,99741.67
2018-03-28T11:52:21.255Z,99738.14
2018-03-28T11:54:52.382Z,99730.47
2018-03-28T11:57:25.703Z,99732.05
2018-03-28T11:59:59.268Z,99719.61
2018-03-28T12:02:38.965Z,99722.72
2018-03-28T12:05:10.805Z,99711.59
2018-03-28T12:07:42.371Z,99706.48
2018-03-28T12:10:14.279Z,99698.00
2018-03-28T12:12:49.891Z,99660.82
2018-03-28T12:15:24.116Z,99678.69
2018-03-28T12:17:55.536Z,99674.79
2018-03-28T12:20:27.905Z,99666.59
2018-03-28T12:23:02.834Z,99660.39
2018-03-28T12:25:37.009Z,99657.94
2018-03-28T12:28:09.909Z,99649.16
2018-03-28T12:30:41.557Z,99650.45
2018-03-28T12:33:13.758Z,99638.08
2018-03-28T12:35:45.118Z,99625.87
2018-03-28T12:38:17.772Z,99631.06
2018-03-28T12:40:50.366Z,99620.02
2018-03-28T12:43:22.033Z,99618.80
2018-03-28T12:45:54.563Z,99617.63
2018-03-28T12:48:32.431Z,99608.41
2018-03-28T12:51:04.630Z,99604.06
2018-03-28T12:53:38.173Z,99590.81
2018-03-28T12:56:10.290Z,99590.39
2018-03-28T12:58:44.052Z,99582.51
2018-03-28T13:01:17.063Z,99587.12
2018-03-28T13:03:50.144Z,99583.92
2018-03-28T13:06:31.286Z,99580.88
2018-03-28T13:09:07.359Z,99583.30
2018-03-28T13:11:41.206Z,99578.07
2018-03-28T13:14:16.785Z,99571.25
2018-03-28T13:16:54.765Z,99576.23
2018-03-28T13:19:46.842Z,99571.48
2018-03-28T13:22:28.915Z,99565.08
2018-03-28T13:25:38.241Z,99552.02
2018-03-28T13:28:27.779Z,99547.52
2018-03-28T13:31:05.918Z,99537.94
2018-03-28T13:33:43.263Z,99518.39
2018-03-28T13:36:21.567Z,99509.33
2018-03-28T13:38:59.242Z,99512.67
2018-03-28T13:41:31.401Z,99504.80
2018-03-28T13:44:09.335Z,99498.08
2018-03-28T13:49:28.439Z,99470.95
2018-03-28T13:52:12.589Z,99467.70
2018-03-28T13:54:51.381Z,99462.19
2018-03-28T13:57:33.700Z,99461.34
2018-03-28T14:00:11.062Z,99455.91
2018-03-28T14:02:46.040Z,99439.68
2018-03-28T14:05:17.423Z,99447.63
2018-03-28T14:08:09.010Z,99439.36
2018-03-28T14:10:42.723Z,99434.08
2018-03-28T14:13:14.524Z,99439.80
2018-03-28T14:15:46.802Z,99440.41
2018-03-28T14:18:20.052Z,99434.90
2018-03-28T14:20:53.432Z,99430.37
2018-03-28T14:23:25.999Z,99418.72
2018-03-28T14:25:58.366Z,99410.38
2018-03-28T14:28:30.098Z,99384.81
2018-03-28T14:33:32.713Z,99393.12
2018-03-28T14:36:06.388Z,99384.06
2018-03-28T14:38:38.784Z,99364.58
2018-03-28T14:41:10.940Z,99360.98
2018-03-28T14:43:45.221Z,99345.42
2018-03-28T14:46:17.317Z,99341.25
2018-03-28T14:48:49.354Z,99333.98
2018-03-28T14:51:20.285Z,99333.85
2018-03-28T14:53:51.462Z,99322.72
2018-03-28T14:56:22.232Z,99319.72
2018-03-28T14:58:53.586Z,99303.12
2018-03-28T15:01:32.592Z,99285.86
2018-03-28T15:04:04.275Z,99293.88
2018-03-28T15:06:38.825Z,99285.34
2018-03-28T15:09:11.933Z,99284.13
2018-03-28T15:11:43.678Z,99276.70
2018-03-28T15:14:16.351Z,99266.20
2018-03-28T15:17:01.441Z,99255.67
2018-03-28T15:19:35.307Z,99246.66
2018-03-28T15:22:06.762Z,99241.23
2018-03-28T15:24:39.901Z,99236.91
2018-03-28T15:27:13.401Z,99222.44
2018-03-28T15:29:45.885Z,99212.81
2018-03-28T15:34:58.602Z,99164.08
2018-03-28T15:37:29.743Z,99169.00
2018-03-28T15:40:02.610Z,99174.74
2018-03-28T15:42:34.566Z,99172.16
2018-03-28T15:45:09.314Z,99153.63
2018-03-28T15:47:44.527Z,99171.38
2018-03-28T15:50:16.309Z,99174.03
2018-03-28T15:52:48.108Z,99157.23
2018-03-28T15:55:19.188Z,99150.93
2018-03-28T15:57:52.053Z,99151.00
2018-03-28T16:00:25.727Z,99151.66
2018-03-28T16:03:00.778Z,99148.59
2018-03-28T16:05:32.795Z,99131.02
2018-03-28T16:08:04.202Z,99137.09
2018-03-28T16:10:42.448Z,99132.41
2018-03-28T16:13:14.345Z,99111.74
2018-03-28T16:15:47.123Z,99127.84
2018-03-28T16:18:20.622Z,99127.50
2018-03-28T16:20:53.310Z,99121.42
2018-03-28T16:23:24.508Z,99117.77
2018-03-28T16:25:56.749Z,99123.55
2018-03-28T16:28:33.024Z,99118.03
2018-03-28T18:05:53.525Z,98981.09
2018-03-28T18:08:37.623Z,98981.13
2018-03-28T18:11:09.442Z,98990.48
2018-03-28T18:13:46.050Z,98977.78
2018-03-28T18:16:19.067Z,99055.92
2018-03-28T18:18:54.422Z,99053.30
2018-03-28T18:21:26.167Z,99055.61
2018-03-28T18:23:58.335Z,99046.47
2018-03-28T18:26:29.190Z,99056.13
2018-03-28T18:29:01.074Z,99080.25
2018-03-28T18:31:34.651Z,99080.75
2018-03-28T18:34:05.419Z,99068.02
2018-03-28T18:36:36.776Z,99120.44
2018-03-28T18:39:08.736Z,99137.36
2018-03-28T18:41:40.044Z,99159.77
2018-03-28T18:44:11.613Z,99178.39
2018-03-28T18:46:44.090Z,99206.21
2018-03-28T18:49:18.435Z,99226.08
2018-03-28T18:51:53.033Z,99246.48
2018-03-28T18:54:25.422Z,99250.57
2018-03-28T18:57:06.512Z,99262.92
2018-03-28T18:59:38.728Z,99296.02
2018-03-28T19:02:09.248Z,99277.85
2018-03-28T19:04:41.947Z,99306.70
2018-03-28T19:07:17.527Z,99333.02
2018-03-28T19:09:51.052Z,99343.69
2018-03-28T19:12:23.440Z,99344.35
2018-03-28T19:17:38.576Z,99371.55
2018-03-28T19:20:18.952Z,99384.11
2018-03-28T19:22:53.253Z,99399.84
2018-03-28T19:25:45.845Z,99419.76
2018-03-28T19:28:17.648Z,99424.52
2018-03-28T19:30:54.867Z,99426.48
2018-03-28T19:33:31.752Z,99440.46
2018-03-28T19:36:04.070Z,99448.12
2018-03-28T19:38:44.478Z,99450.09
2018-03-28T19:41:15.852Z,99473.17
2018-03-28T19:43:49.589Z,99470.04
2018-03-28T19:49:05.675Z,99492.31
2018-03-28T19:51:40.372Z,99497.52
2018-03-28T19:54:14.770Z,99495.66
2018-03-28T19:56:50.138Z,99518.84
2018-03-28T19:59:23.218Z,99494.52
2018-03-28T20:01:58.001Z,99526.10
2018-03-28T20:04:31.854Z,99530.95
2018-03-28T20:07:09.657Z,99543.82
2018-03-28T20:09:44.619Z,99540.53
2018-03-28T20:12:20.515Z,99540.16
2018-03-28T20:14:52.384Z,99559.28
2018-03-28T20:17:26.513Z,99566.02
2018-03-28T20:19:57.674Z,99558.72
2018-03-28T20:22:29.437Z,99562.09
2018-03-28T20:25:13.270Z,99590.05
2018-03-28T20:27:46.252Z,99581.02
2018-03-28T20:30:20.296Z,99583.50
2018-03-28T20:32:51.757Z,99594.25
2018-03-28T20:35:26.440Z,99607.58
2018-03-28T20:37:58.223Z,99616.47
2018-03-28T20:40:32.154Z,99606.38
2018-03-28T20:43:05.236Z,99612.75
2018-03-28T20:45:41.331Z,99621.94
2018-03-28T20:48:12.884Z,99619.37
2018-03-28T20:50:44.099Z,99641.74
2018-03-28T20:53:18.198Z,99641.88
2018-03-28T20:55:50.342Z,99657.34
2018-03-28T20:58:23.193Z,99662.30
2018-03-28T21:00:54.976Z,99677.25
2018-03-28T21:03:29.079Z,99682.36
2018-03-28T21:06:01.573Z,99689.58
2018-03-28T21:08:35.109Z,99692.64
2018-03-28T21:11:08.173Z,99696.25
2018-03-28T21:13:41.517Z,99707.20
2018-03-28T21:16:14.898Z,99721.98
2018-03-28T21:18:48.143Z,99725.63
2018-03-28T21:21:19.662Z,99729.59
2018-03-28T21:23:50.803Z,99720.77
2018-03-28T21:26:23.255Z,99740.50
2018-03-28T21:28:54.259Z,99741.98
2018-03-28T21:31:28.555Z,99740.60
2018-03-28T21:34:00.826Z,99753.58
2018-03-28T21:36:31.720Z,99759.66
2018-03-28T21:39:03.678Z,99760.08
2018-03-28T21:41:35.591Z,99773.75
2018-03-28T21:44:06.344Z,99767.61
2018-03-28T21:46:37.917Z,99782.75
2018-03-28T21:49:10.667Z,99790.14
2018-03-28T21:51:42.625Z,99792.13
2018-03-28T21:54:15.661Z,99784.56
2018-03-28T21:56:49.204Z,99800.89
2018-03-28T21:59:21.858Z,99798.30
2018-03-28T22:01:54.285Z,99805.63
2018-03-28T22:04:25.504Z,99807.95
2018-03-28T22:06:58.129Z,99823.27
2018-03-28T22:09:29.449Z,99819.37
2018-03-28T22:12:02.200Z,99819.83
2018-03-28T22:14:35.538Z,99832.44
2018-03-28T22:17:09.557Z,99832.13
2018-03-28T22:19:42.205Z,99838.94
2018-03-28T22:22:16.451Z,99844.38
2018-03-28T22:24:48.861Z,99842.89
2018-03-28T22:27:20.673Z,99842.13
2018-03-28T22:29:52.222Z,99847.06
2018-03-28T22:32:24.278Z,99845.23
2018-03-28T22:34:56.696Z,99855.27
2018-03-28T22:37:29.913Z,99866.25
2018-03-28T22:40:02.231Z,99869.45
2018-03-28T22:42:34.896Z,99866.39
2018-03-28T22:45:20.129Z,99871.14
2018-03-28T22:47:55.341Z,99877.84
2018-03-28T22:50:28.920Z,99880.71
2018-03-28T22:53:01.196Z,99882.21
2018-03-28T22:55:32.918Z,99888.36
2018-03-28T22:58:14.175Z,99894.95
2018-03-28T23:00:46.084Z,99880.20
2018-03-28T23:03:18.581Z,99903.13
2018-03-28T23:05:50.717Z,99887.98
2018-03-28T23:08:21.930Z,99898.66
2018-03-28T23:10:53.517Z,99913.04
2018-03-28T23:13:24.565Z,99915.47
2018-03-28T23:15:56.957Z,99913.09
2018-03-28T23:18:28.704Z,99915.95
2018-03-28T23:20:59.902Z,99914.18
2018-03-28T23:23:31.516Z,99930.73
2018-03-28T23:26:03.487Z,99916.70
2018-03-28T23:28:34.989Z,99927.88
2018-03-28T23:31:08.319Z,99925.36
2018-03-28T23:33:39.855Z,99924.78
2018-03-28T23:36:11.104Z,99928.72
2018-03-28T23:38:42.736Z,99921.70
2018-03-28T23:41:14.186Z,99932.20
2018-03-28T23:43:45.593Z,99929.55
2018-03-28T23:46:17.511Z,99928.17
2018-03-28T23:48:49.595Z,99932.63
2018-03-28T23:51:20.579Z,99937.58
2018-03-28T23:53:52.203Z,99933.31
2018-03-28T23:56:24.093Z,99935.09
2018-03-28T23:58:55.229Z,99945.06
